sensor_id;sensor_type;location;lat;lon;timestamp;temperature;humidity
37310;DHT22;23195;47.744;7.358;2023-02-20T00:02:27;7.00;99.90
37310;DHT22;23195;47.744;7.358;2023-02-20T00:05:00;7.10;99.90
37310;DHT22;23195;47.744;7.358;2023-02-20T00:07:48;7.10;99.90
37310;DHT22;23195;47.744;7.358;2023-02-20T00:10:19;7.10;99.90
37310;DHT22;23195;47.744;7.358;2023-02-20T00:12:49;7.20;99.90
37310;DHT22;23195;47.744;7.358;2023-02-20T00:15:25;7.30;99.90
37310;DHT22;23195;47.744;7.358;2023-02-20T00:18:03;7.30;99.90
37310;DHT22;23195;47.744;7.358;2023-02-20T00:20:32;7.30;99.90
37310;DHT22;23195;47.744;7.358;2023-02-20T00:23:09;7.40;99.90
37310;DHT22;23195;47.744;7.358;2023-02-20T00:25:50;7.40;99.90
37310;DHT22;23195;47.744;7.358;2023-02-20T00:28:24;7.30;99.90
37310;DHT22;23195;47.744;7.358;2023-02-20T00:30:50;7.40;99.90
37310;DHT22;23195;47.744;7.358;2023-02-20T00:33:25;7.30;99.90
37310;DHT22;23195;47.744;7.358;2023-02-20T00:35:55;6.20;99.90
37310;DHT22;23195;47.744;7.358;2023-02-20T00:38:30;7.30;99.90
37310;DHT22;23195;47.744;7.358;2023-02-20T00:41:02;7.30;99.90
37310;DHT22;23195;47.744;7.358;2023-02-20T00:43:32;6.90;99.90
37310;DHT22;23195;47.744;7.358;2023-02-20T00:46:06;7.20;99.90
37310;DHT22;23195;47.744;7.358;2023-02-20T00:48:35;7.10;99.90
37310;DHT22;23195;47.744;7.358;2023-02-20T00:51:03;7.00;99.90
37310;DHT22;23195;47.744;7.358;2023-02-20T00:53:36;7.10;99.90
37310;DHT22;23195;47.744;7.358;2023-02-20T00:56:07;7.00;99.90
37310;DHT22;23195;47.744;7.358;2023-02-20T00:58:52;7.00;99.90
37310;DHT22;23195;47.744;7.358;2023-02-20T01:01:31;6.90;99.90
37310;DHT22;23195;47.744;7.358;2023-02-20T01:03:59;6.80;99.90
37310;DHT22;23195;47.744;7.358;2023-02-20T01:06:41;6.80;99.90
37310;DHT22;23195;47.744;7.358;2023-02-20T01:09:11;6.90;99.90
37310;DHT22;23195;47.744;7.358;2023-02-20T01:11:44;6.80;99.90
37310;DHT22;23195;47.744;7.358;2023-02-20T01:14:23;6.80;99.90
37310;DHT22;23195;47.744;7.358;2023-02-20T01:17:01;6.70;99.90
37310;DHT22;23195;47.744;7.358;2023-02-20T01:19:30;6.60;99.90
37310;DHT22;23195;47.744;7.358;2023-02-20T01:22:07;6.60;99.90
37310;DHT22;23195;47.744;7.358;2023-02-20T01:24:43;6.60;99.90
37310;DHT22;23195;47.744;7.358;2023-02-20T01:27:19;5.80;99.90
37310;DHT22;23195;47.744;7.358;2023-02-20T01:29:45;6.60;99.90
37310;DHT22;23195;47.744;7.358;2023-02-20T01:32:14;6.50;99.90
37310;DHT22;23195;47.744;7.358;2023-02-20T01:34:43;6.50;99.90
37310;DHT22;23195;47.744;7.358;2023-02-20T01:37:24;6.40;99.90
37310;DHT22;23195;47.744;7.358;2023-02-20T01:39:57;6.40;99.90
37310;DHT22;23195;47.744;7.358;2023-02-20T01:42:49;6.40;99.90
37310;DHT22;23195;47.744;7.358;2023-02-20T01:45:36;6.40;99.90
37310;DHT22;23195;47.744;7.358;2023-02-20T01:48:05;6.30;99.90
37310;DHT22;23195;47.744;7.358;2023-02-20T01:50:43;6.40;99.90
37310;DHT22;23195;47.744;7.358;2023-02-20T01:53:24;6.40;99.90
37310;DHT22;23195;47.744;7.358;2023-02-20T01:55:53;6.50;99.90
37310;DHT22;23195;47.744;7.358;2023-02-20T01:58:38;6.50;99.90
37310;DHT22;23195;47.744;7.358;2023-02-20T02:01:18;6.50;99.90
37310;DHT22;23195;47.744;7.358;2023-02-20T02:03:57;6.40;99.90
37310;DHT22;23195;47.744;7.358;2023-02-20T02:06:28;6.40;99.90
37310;DHT22;23195;47.744;7.358;2023-02-20T02:09:15;5.60;99.90
37310;DHT22;23195;47.744;7.358;2023-02-20T02:11:47;6.30;99.90
37310;DHT22;23195;47.744;7.358;2023-02-20T02:14:16;6.20;99.90
37310;DHT22;23195;47.744;7.358;2023-02-20T02:17:32;6.10;99.90
37310;DHT22;23195;47.744;7.358;2023-02-20T02:29:23;6.00;99.90
37310;DHT22;23195;47.744;7.358;2023-02-20T02:31:41;5.90;99.90
37310;DHT22;23195;47.744;7.358;2023-02-20T02:37:20;5.80;99.90
37310;DHT22;23195;47.744;7.358;2023-02-20T02:40:13;5.80;99.90
37310;DHT22;23195;47.744;7.358;2023-02-20T02:43:08;5.70;99.90
37310;DHT22;23195;47.744;7.358;2023-02-20T02:45:47;5.70;99.90
37310;DHT22;23195;47.744;7.358;2023-02-20T02:50:53;5.80;99.90
37310;DHT22;23195;47.744;7.358;2023-02-20T02:53:30;5.60;99.90
37310;DHT22;23195;47.744;7.358;2023-02-20T02:55:58;5.00;99.90
37310;DHT22;23195;47.744;7.358;2023-02-20T02:58:44;5.80;99.90
37310;DHT22;23195;47.744;7.358;2023-02-20T03:01:19;5.40;99.90
37310;DHT22;23195;47.744;7.358;2023-02-20T03:03:47;5.90;99.90
37310;DHT22;23195;47.744;7.358;2023-02-20T03:06:22;5.90;99.90
37310;DHT22;23195;47.744;7.358;2023-02-20T03:09:30;5.90;99.90
37310;DHT22;23195;47.744;7.358;2023-02-20T03:12:00;5.90;99.90
37310;DHT22;23195;47.744;7.358;2023-02-20T03:14:57;5.90;99.90
37310;DHT22;23195;47.744;7.358;2023-02-20T03:18:00;6.00;99.90
37310;DHT22;23195;47.744;7.358;2023-02-20T03:20:37;6.00;99.90
37310;DHT22;23195;47.744;7.358;2023-02-20T03:23:11;6.00;99.90
37310;DHT22;23195;47.744;7.358;2023-02-20T03:25:43;5.90;99.90
37310;DHT22;23195;47.744;7.358;2023-02-20T03:28:37;5.90;99.90
37310;DHT22;23195;47.744;7.358;2023-02-20T03:31:16;5.60;99.90
37310;DHT22;23195;47.744;7.358;2023-02-20T03:33:57;5.90;99.90
37310;DHT22;23195;47.744;7.358;2023-02-20T03:37:05;5.90;99.90
37310;DHT22;23195;47.744;7.358;2023-02-20T03:39:54;6.00;99.90
37310;DHT22;23195;47.744;7.358;2023-02-20T03:42:42;6.00;99.90
37310;DHT22;23195;47.744;7.358;2023-02-20T03:45:32;6.00;99.90
37310;DHT22;23195;47.744;7.358;2023-02-20T03:48:14;5.90;99.90
37310;DHT22;23195;47.744;7.358;2023-02-20T03:50:41;5.90;99.90
37310;DHT22;23195;47.744;7.358;2023-02-20T03:53:09;5.90;99.90
37310;DHT22;23195;47.744;7.358;2023-02-20T03:55:53;5.40;99.90
37310;DHT22;23195;47.744;7.358;2023-02-20T03:58:23;5.80;99.90
37310;DHT22;23195;47.744;7.358;2023-02-20T04:00:51;5.80;99.90
37310;DHT22;23195;47.744;7.358;2023-02-20T04:03:24;5.80;99.90
37310;DHT22;23195;47.744;7.358;2023-02-20T04:05:53;5.80;99.90
37310;DHT22;23195;47.744;7.358;2023-02-20T04:08:23;5.80;99.90
37310;DHT22;23195;47.744;7.358;2023-02-20T04:13:36;5.90;99.90
37310;DHT22;23195;47.744;7.358;2023-02-20T04:16:06;5.90;99.90
37310;DHT22;23195;47.744;7.358;2023-02-20T04:18:45;5.90;99.90
37310;DHT22;23195;47.744;7.358;2023-02-20T04:21:34;5.90;99.90
37310;DHT22;23195;47.744;7.358;2023-02-20T04:24:09;5.80;99.90
37310;DHT22;23195;47.744;7.358;2023-02-20T04:26:36;5.70;99.90
37310;DHT22;23195;47.744;7.358;2023-02-20T04:29:10;5.70;99.90
37310;DHT22;23195;47.744;7.358;2023-02-20T04:31:36;5.60;99.90
37310;DHT22;23195;47.744;7.358;2023-02-20T04:34:06;5.60;99.90
37310;DHT22;23195;47.744;7.358;2023-02-20T04:36:40;5.50;99.90
37310;DHT22;23195;47.744;7.358;2023-02-20T04:39:16;5.50;99.90
37310;DHT22;23195;47.744;7.358;2023-02-20T04:41:54;5.40;99.90
37310;DHT22;23195;47.744;7.358;2023-02-20T04:44:33;5.40;99.90
37310;DHT22;23195;47.744;7.358;2023-02-20T04:47:12;5.20;99.90
37310;DHT22;23195;47.744;7.358;2023-02-20T04:49:49;5.30;99.90
37310;DHT22;23195;47.744;7.358;2023-02-20T04:52:15;5.20;99.90
37310;DHT22;23195;47.744;7.358;2023-02-20T04:54:43;5.10;99.90
37310;DHT22;23195;47.744;7.358;2023-02-20T04:57:19;5.00;99.90
37310;DHT22;23195;47.744;7.358;2023-02-20T04:59:45;5.00;99.90
37310;DHT22;23195;47.744;7.358;2023-02-20T05:02:11;5.00;99.90
37310;DHT22;23195;47.744;7.358;2023-02-20T05:04:48;4.90;99.90
37310;DHT22;23195;47.744;7.358;2023-02-20T05:07:16;4.90;99.90
37310;DHT22;23195;47.744;7.358;2023-02-20T05:09:44;4.80;99.90
37310;DHT22;23195;47.744;7.358;2023-02-20T05:12:10;4.80;99.90
37310;DHT22;23195;47.744;7.358;2023-02-20T05:14:38;4.70;99.90
37310;DHT22;23195;47.744;7.358;2023-02-20T05:17:04;4.70;99.90
37310;DHT22;23195;47.744;7.358;2023-02-20T05:19:40;4.70;99.90
37310;DHT22;23195;47.744;7.358;2023-02-20T05:22:10;4.60;99.90
37310;DHT22;23195;47.744;7.358;2023-02-20T05:24:51;4.60;99.90
37310;DHT22;23195;47.744;7.358;2023-02-20T05:27:20;4.60;99.90
37310;DHT22;23195;47.744;7.358;2023-02-20T05:29:48;4.50;99.90
37310;DHT22;23195;47.744;7.358;2023-02-20T05:32:24;4.50;99.90
37310;DHT22;23195;47.744;7.358;2023-02-20T05:34:55;4.40;99.90
37310;DHT22;23195;47.744;7.358;2023-02-20T05:37:27;4.40;99.90
37310;DHT22;23195;47.744;7.358;2023-02-20T05:40:12;4.40;99.90
37310;DHT22;23195;47.744;7.358;2023-02-20T05:42:48;4.30;99.90
37310;DHT22;23195;47.744;7.358;2023-02-20T05:45:17;4.40;99.90
37310;DHT22;23195;47.744;7.358;2023-02-20T05:47:50;4.30;99.90
37310;DHT22;23195;47.744;7.358;2023-02-20T05:50:16;4.30;99.90
37310;DHT22;23195;47.744;7.358;2023-02-20T05:52:44;4.30;99.90
37310;DHT22;23195;47.744;7.358;2023-02-20T05:55:28;4.30;99.90
37310;DHT22;23195;47.744;7.358;2023-02-20T05:57:56;4.30;99.90
37310;DHT22;23195;47.744;7.358;2023-02-20T06:00:24;4.30;99.90
37310;DHT22;23195;47.744;7.358;2023-02-20T06:03:00;4.30;99.90
37310;DHT22;23195;47.744;7.358;2023-02-20T06:05:28;4.30;99.90
37310;DHT22;23195;47.744;7.358;2023-02-20T06:08:00;4.20;99.90
37310;DHT22;23195;47.744;7.358;2023-02-20T06:10:36;4.20;99.90
37310;DHT22;23195;47.744;7.358;2023-02-20T06:13:15;4.20;99.90
37310;DHT22;23195;47.744;7.358;2023-02-20T06:15:46;4.20;99.90
37310;DHT22;23195;47.744;7.358;2023-02-20T06:18:12;4.10;99.90
37310;DHT22;23195;47.744;7.358;2023-02-20T06:20:40;4.10;99.90
37310;DHT22;23195;47.744;7.358;2023-02-20T06:23:19;4.20;99.90
37310;DHT22;23195;47.744;7.358;2023-02-20T06:25:45;4.20;99.90
37310;DHT22;23195;47.744;7.358;2023-02-20T06:28:11;4.10;99.90
37310;DHT22;23195;47.744;7.358;2023-02-20T06:30:46;4.10;99.90
37310;DHT22;23195;47.744;7.358;2023-02-20T06:33:15;4.20;99.90
37310;DHT22;23195;47.744;7.358;2023-02-20T06:35:58;4.10;99.90
37310;DHT22;23195;47.744;7.358;2023-02-20T06:38:28;4.10;99.90
37310;DHT22;23195;47.744;7.358;2023-02-20T06:41:02;5.20;99.90
37310;DHT22;23195;47.744;7.358;2023-02-20T06:43:45;4.20;99.90
37310;DHT22;23195;47.744;7.358;2023-02-20T06:46:37;4.20;99.90
37310;DHT22;23195;47.744;7.358;2023-02-20T06:49:10;4.30;99.90
37310;DHT22;23195;47.744;7.358;2023-02-20T06:52:04;4.30;99.90
37310;DHT22;23195;47.744;7.358;2023-02-20T06:55:01;4.20;99.90
37310;DHT22;23195;47.744;7.358;2023-02-20T06:57:39;5.00;99.90
37310;DHT22;23195;47.744;7.358;2023-02-20T07:00:28;4.40;99.90
37310;DHT22;23195;47.744;7.358;2023-02-20T07:03:33;4.40;99.90
37310;DHT22;23195;47.744;7.358;2023-02-20T07:09:16;4.60;99.90
37310;DHT22;23195;47.744;7.358;2023-02-20T07:12:13;4.60;99.90
37310;DHT22;23195;47.744;7.358;2023-02-20T07:15:09;4.70;99.90
37310;DHT22;23195;47.744;7.358;2023-02-20T07:18:02;4.70;99.90
37310;DHT22;23195;47.744;7.358;2023-02-20T07:20:39;4.80;99.90
37310;DHT22;23195;47.744;7.358;2023-02-20T07:23:41;4.90;99.90
37310;DHT22;23195;47.744;7.358;2023-02-20T07:26:28;5.00;99.90
37310;DHT22;23195;47.744;7.358;2023-02-20T07:29:07;5.10;99.90
37310;DHT22;23195;47.744;7.358;2023-02-20T07:31:35;5.20;99.90
37310;DHT22;23195;47.744;7.358;2023-02-20T07:34:11;5.20;99.90
37310;DHT22;23195;47.744;7.358;2023-02-20T07:36:43;5.30;99.90
37310;DHT22;23195;47.744;7.358;2023-02-20T07:39:12;5.40;99.90
37310;DHT22;23195;47.744;7.358;2023-02-20T07:41:44;5.40;99.90
37310;DHT22;23195;47.744;7.358;2023-02-20T07:44:12;5.60;99.90
37310;DHT22;23195;47.744;7.358;2023-02-20T07:46:41;5.70;99.90
37310;DHT22;23195;47.744;7.358;2023-02-20T07:49:10;6.20;99.90
37310;DHT22;23195;47.744;7.358;2023-02-20T07:51:39;7.20;99.90
37310;DHT22;23195;47.744;7.358;2023-02-20T07:54:06;8.00;99.90
37310;DHT22;23195;47.744;7.358;2023-02-20T07:56:36;9.10;99.90
37310;DHT22;23195;47.744;7.358;2023-02-20T07:59:25;9.90;99.90
37310;DHT22;23195;47.744;7.358;2023-02-20T08:02:05;10.60;99.90
37310;DHT22;23195;47.744;7.358;2023-02-20T08:04:44;11.10;99.90
37310;DHT22;23195;47.744;7.358;2023-02-20T08:07:26;11.50;99.90
37310;DHT22;23195;47.744;7.358;2023-02-20T08:09:57;12.00;99.90
37310;DHT22;23195;47.744;7.358;2023-02-20T08:12:43;12.50;99.90
37310;DHT22;23195;47.744;7.358;2023-02-20T08:15:31;12.70;99.90
37310;DHT22;23195;47.744;7.358;2023-02-20T08:18:10;13.00;99.90
37310;DHT22;23195;47.744;7.358;2023-02-20T08:20:44;12.70;99.90
37310;DHT22;23195;47.744;7.358;2023-02-20T08:23:55;13.20;99.90
37310;DHT22;23195;47.744;7.358;2023-02-20T08:26:29;13.30;99.90
37310;DHT22;23195;47.744;7.358;2023-02-20T08:29:21;13.30;99.90
37310;DHT22;23195;47.744;7.358;2023-02-20T08:32:00;13.30;99.90
37310;DHT22;23195;47.744;7.358;2023-02-20T08:34:44;13.30;99.90
37310;DHT22;23195;47.744;7.358;2023-02-20T08:37:23;13.20;99.90
37310;DHT22;23195;47.744;7.358;2023-02-20T08:40:18;13.10;99.90
37310;DHT22;23195;47.744;7.358;2023-02-20T08:42:50;12.80;99.90
37310;DHT22;23195;47.744;7.358;2023-02-20T08:45:29;12.70;99.90
37310;DHT22;23195;47.744;7.358;2023-02-20T08:48:00;12.60;99.90
37310;DHT22;23195;47.744;7.358;2023-02-20T08:50:28;12.40;99.90
37310;DHT22;23195;47.744;7.358;2023-02-20T08:52:57;12.20;99.90
37310;DHT22;23195;47.744;7.358;2023-02-20T08:55:30;12.00;99.90
37310;DHT22;23195;47.744;7.358;2023-02-20T08:57:56;11.80;99.90
37310;DHT22;23195;47.744;7.358;2023-02-20T09:00:33;10.50;99.90
37310;DHT22;23195;47.744;7.358;2023-02-20T09:03:16;11.70;99.90
37310;DHT22;23195;47.744;7.358;2023-02-20T09:06:09;11.30;99.90
37310;DHT22;23195;47.744;7.358;2023-02-20T09:08:45;11.00;99.90
37310;DHT22;23195;47.744;7.358;2023-02-20T09:11:30;10.80;99.90
37310;DHT22;23195;47.744;7.358;2023-02-20T09:14:06;9.80;99.90
37310;DHT22;23195;47.744;7.358;2023-02-20T09:16:36;10.60;99.90
37310;DHT22;23195;47.744;7.358;2023-02-20T09:19:17;10.50;99.90
37310;DHT22;23195;47.744;7.358;2023-02-20T09:21:53;10.40;99.90
37310;DHT22;23195;47.744;7.358;2023-02-20T09:24:22;10.40;99.90
37310;DHT22;23195;47.744;7.358;2023-02-20T09:27:00;10.50;99.90
37310;DHT22;23195;47.744;7.358;2023-02-20T09:29:59;10.50;99.90
37310;DHT22;23195;47.744;7.358;2023-02-20T09:32:53;10.50;99.90
37310;DHT22;23195;47.744;7.358;2023-02-20T09:35:35;10.50;99.90
37310;DHT22;23195;47.744;7.358;2023-02-20T09:38:03;10.40;99.90
37310;DHT22;23195;47.744;7.358;2023-02-20T09:40:33;10.60;99.90
37310;DHT22;23195;47.744;7.358;2023-02-20T09:45:55;10.60;99.90
37310;DHT22;23195;47.744;7.358;2023-02-20T09:51:55;10.60;99.90
37310;DHT22;23195;47.744;7.358;2023-02-20T09:54:42;10.70;99.90
37310;DHT22;23195;47.744;7.358;2023-02-20T09:57:31;10.80;99.90
37310;DHT22;23195;47.744;7.358;2023-02-20T10:00:20;11.00;99.90
37310;DHT22;23195;47.744;7.358;2023-02-20T10:02:57;11.00;99.90
37310;DHT22;23195;47.744;7.358;2023-02-20T10:05:28;11.10;99.90
37310;DHT22;23195;47.744;7.358;2023-02-20T10:08:02;11.10;99.90
37310;DHT22;23195;47.744;7.358;2023-02-20T10:10:47;10.80;99.90
37310;DHT22;23195;47.744;7.358;2023-02-20T10:13:35;11.20;99.90
37310;DHT22;23195;47.744;7.358;2023-02-20T10:16:38;11.30;99.90
37310;DHT22;23195;47.744;7.358;2023-02-20T10:22:15;11.50;99.90
37310;DHT22;23195;47.744;7.358;2023-02-20T10:25:07;11.50;99.90
37310;DHT22;23195;47.744;7.358;2023-02-20T10:28:08;11.50;99.90
37310;DHT22;23195;47.744;7.358;2023-02-20T10:33:41;11.70;99.90
37310;DHT22;23195;47.744;7.358;2023-02-20T10:39:19;11.90;99.90
37310;DHT22;23195;47.744;7.358;2023-02-20T10:41:58;12.00;99.90
37310;DHT22;23195;47.744;7.358;2023-02-20T10:44:30;12.10;99.90
37310;DHT22;23195;47.744;7.358;2023-02-20T10:47:27;12.00;99.90
37310;DHT22;23195;47.744;7.358;2023-02-20T10:53:48;12.10;99.90
37310;DHT22;23195;47.744;7.358;2023-02-20T10:56:32;12.20;99.90
37310;DHT22;23195;47.744;7.358;2023-02-20T11:02:20;12.10;99.90
37310;DHT22;23195;47.744;7.358;2023-02-20T11:05:10;12.10;99.90
37310;DHT22;23195;47.744;7.358;2023-02-20T11:07:41;12.10;99.90
37310;DHT22;23195;47.744;7.358;2023-02-20T11:10:47;12.20;99.90
37310;DHT22;23195;47.744;7.358;2023-02-20T11:13:26;12.30;99.90
37310;DHT22;23195;47.744;7.358;2023-02-20T11:16:33;12.40;99.90
37310;DHT22;23195;47.744;7.358;2023-02-20T11:19:16;12.50;99.90
37310;DHT22;23195;47.744;7.358;2023-02-20T11:21:53;12.40;99.90
37310;DHT22;23195;47.744;7.358;2023-02-20T11:25:02;12.50;99.90
37310;DHT22;23195;47.744;7.358;2023-02-20T11:27:26;12.60;99.90
37310;DHT22;23195;47.744;7.358;2023-02-20T11:30:23;12.70;99.90
37310;DHT22;23195;47.744;7.358;2023-02-20T11:33:05;12.50;99.90
37310;DHT22;23195;47.744;7.358;2023-02-20T11:35:42;12.60;99.90
37310;DHT22;23195;47.744;7.358;2023-02-20T11:43:38;12.90;99.90
37310;DHT22;23195;47.744;7.358;2023-02-20T11:46:22;13.00;99.90
37310;DHT22;23195;47.744;7.358;2023-02-20T11:48:58;13.00;99.90
37310;DHT22;23195;47.744;7.358;2023-02-20T11:51:48;13.10;99.90
37310;DHT22;23195;47.744;7.358;2023-02-20T11:54:24;13.20;99.90
37310;DHT22;23195;47.744;7.358;2023-02-20T11:57:24;13.20;99.90
37310;DHT22;23195;47.744;7.358;2023-02-20T12:00:12;13.30;99.90
37310;DHT22;23195;47.744;7.358;2023-02-20T12:09:27;13.50;99.90
37310;DHT22;23195;47.744;7.358;2023-02-20T12:12:09;13.60;99.90
37310;DHT22;23195;47.744;7.358;2023-02-20T12:14:50;13.60;99.90
37310;DHT22;23195;47.744;7.358;2023-02-20T12:17:36;13.80;99.90
37310;DHT22;23195;47.744;7.358;2023-02-20T12:20:24;13.80;99.90
37310;DHT22;23195;47.744;7.358;2023-02-20T12:28:44;14.00;99.90
37310;DHT22;23195;47.744;7.358;2023-02-20T12:43:15;14.00;99.90
37310;DHT22;23195;47.744;7.358;2023-02-20T12:48:51;14.10;99.90
37310;DHT22;23195;47.744;7.358;2023-02-20T12:51:49;14.10;99.90
37310;DHT22;23195;47.744;7.358;2023-02-20T12:57:34;14.20;99.90
37310;DHT22;23195;47.744;7.358;2023-02-20T13:05:55;14.40;99.90
37310;DHT22;23195;47.744;7.358;2023-02-20T13:08:40;14.40;99.90
37310;DHT22;23195;47.744;7.358;2023-02-20T13:11:16;14.40;99.90
37310;DHT22;23195;47.744;7.358;2023-02-20T13:16:43;14.50;99.90
37310;DHT22;23195;47.744;7.358;2023-02-20T13:19:37;14.60;99.90
37310;DHT22;23195;47.744;7.358;2023-02-20T13:22:04;14.60;99.90
37310;DHT22;23195;47.744;7.358;2023-02-20T13:24:43;14.60;99.90
37310;DHT22;23195;47.744;7.358;2023-02-20T13:30:17;14.60;99.90
37310;DHT22;23195;47.744;7.358;2023-02-20T13:33:32;14.60;99.90
37310;DHT22;23195;47.744;7.358;2023-02-20T13:36:01;14.70;99.90
37310;DHT22;23195;47.744;7.358;2023-02-20T13:38:37;14.70;99.90
37310;DHT22;23195;47.744;7.358;2023-02-20T13:41:05;14.50;99.90
37310;DHT22;23195;47.744;7.358;2023-02-20T13:43:37;14.90;99.90
37310;DHT22;23195;47.744;7.358;2023-02-20T13:48:43;15.10;99.90
37310;DHT22;23195;47.744;7.358;2023-02-20T13:54:02;15.10;98.80
37310;DHT22;23195;47.744;7.358;2023-02-20T13:56:48;15.20;98.80
37310;DHT22;23195;47.744;7.358;2023-02-20T13:59:18;15.20;98.70
37310;DHT22;23195;47.744;7.358;2023-02-20T14:02:13;15.30;98.60
37310;DHT22;23195;47.744;7.358;2023-02-20T14:07:48;15.20;97.70
37310;DHT22;23195;47.744;7.358;2023-02-20T14:10:38;15.20;97.10
37310;DHT22;23195;47.744;7.358;2023-02-20T14:13:20;15.30;97.30
37310;DHT22;23195;47.744;7.358;2023-02-20T14:15:59;15.30;97.30
37310;DHT22;23195;47.744;7.358;2023-02-20T14:18:41;15.40;97.40
37310;DHT22;23195;47.744;7.358;2023-02-20T14:21:22;15.40;97.00
37310;DHT22;23195;47.744;7.358;2023-02-20T14:23:50;15.40;97.30
37310;DHT22;23195;47.744;7.358;2023-02-20T14:31:52;15.50;96.40
37310;DHT22;23195;47.744;7.358;2023-02-20T14:37:20;15.50;96.20
37310;DHT22;23195;47.744;7.358;2023-02-20T14:40:40;15.40;96.10
37310;DHT22;23195;47.744;7.358;2023-02-20T14:43:27;15.40;96.70
37310;DHT22;23195;47.744;7.358;2023-02-20T14:46:05;15.40;97.40
37310;DHT22;23195;47.744;7.358;2023-02-20T14:48:39;15.40;97.50
37310;DHT22;23195;47.744;7.358;2023-02-20T14:51:22;15.40;97.20
37310;DHT22;23195;47.744;7.358;2023-02-20T14:54:02;15.50;96.80
37310;DHT22;23195;47.744;7.358;2023-02-20T14:56:37;15.50;96.60
37310;DHT22;23195;47.744;7.358;2023-02-20T14:59:27;15.40;96.70
37310;DHT22;23195;47.744;7.358;2023-02-20T15:07:27;15.40;96.70
37310;DHT22;23195;47.744;7.358;2023-02-20T15:09:57;13.80;96.20
37310;DHT22;23195;47.744;7.358;2023-02-20T15:12:47;15.40;97.30
37310;DHT22;23195;47.744;7.358;2023-02-20T15:15:20;15.40;97.70
37310;DHT22;23195;47.744;7.358;2023-02-20T15:18:14;15.40;97.80
37310;DHT22;23195;47.744;7.358;2023-02-20T15:20:44;15.30;97.70
37310;DHT22;23195;47.744;7.358;2023-02-20T15:23:23;15.30;97.70
37310;DHT22;23195;47.744;7.358;2023-02-20T15:25:52;15.30;97.40
37310;DHT22;23195;47.744;7.358;2023-02-20T15:28:27;15.20;97.40
37310;DHT22;23195;47.744;7.358;2023-02-20T15:33:41;15.20;97.10
37310;DHT22;23195;47.744;7.358;2023-02-20T15:36:23;15.10;97.00
37310;DHT22;23195;47.744;7.358;2023-02-20T15:38:54;15.10;97.20
37310;DHT22;23195;47.744;7.358;2023-02-20T15:41:33;15.10;96.80
37310;DHT22;23195;47.744;7.358;2023-02-20T15:44:01;15.10;96.90
37310;DHT22;23195;47.744;7.358;2023-02-20T15:46:33;15.00;97.10
37310;DHT22;23195;47.744;7.358;2023-02-20T15:49:33;14.90;97.50
37310;DHT22;23195;47.744;7.358;2023-02-20T15:51:59;14.80;98.30
37310;DHT22;23195;47.744;7.358;2023-02-20T15:54:36;14.20;97.10
37310;DHT22;23195;47.744;7.358;2023-02-20T15:57:21;14.60;98.30
37310;DHT22;23195;47.744;7.358;2023-02-20T15:59:50;15.80;98.50
37310;DHT22;23195;47.744;7.358;2023-02-20T16:02:29;14.50;98.60
37310;DHT22;23195;47.744;7.358;2023-02-20T16:05:08;14.40;99.00
37310;DHT22;23195;47.744;7.358;2023-02-20T16:07:41;14.40;98.90
37310;DHT22;23195;47.744;7.358;2023-02-20T16:10:07;14.30;99.60
37310;DHT22;23195;47.744;7.358;2023-02-20T16:12:36;14.20;99.50
37310;DHT22;23195;47.744;7.358;2023-02-20T16:15:20;14.00;99.90
37310;DHT22;23195;47.744;7.358;2023-02-20T16:20:52;13.80;99.90
37310;DHT22;23195;47.744;7.358;2023-02-20T16:23:21;13.70;99.90
37310;DHT22;23195;47.744;7.358;2023-02-20T16:26:26;13.70;99.90
37310;DHT22;23195;47.744;7.358;2023-02-20T16:29:01;13.60;99.90
37310;DHT22;23195;47.744;7.358;2023-02-20T16:34:28;13.40;99.90
37310;DHT22;23195;47.744;7.358;2023-02-20T16:37:02;13.30;99.90
37310;DHT22;23195;47.744;7.358;2023-02-20T16:39:43;13.30;99.90
37310;DHT22;23195;47.744;7.358;2023-02-20T16:42:51;13.10;99.90
37310;DHT22;23195;47.744;7.358;2023-02-20T16:45:26;13.00;99.90
37310;DHT22;23195;47.744;7.358;2023-02-20T16:47:55;11.40;99.90
37310;DHT22;23195;47.744;7.358;2023-02-20T16:50:26;12.80;99.90
37310;DHT22;23195;47.744;7.358;2023-02-20T16:53:02;12.70;99.90
37310;DHT22;23195;47.744;7.358;2023-02-20T16:55:33;12.40;99.90
37310;DHT22;23195;47.744;7.358;2023-02-20T16:58:07;12.30;99.90
37310;DHT22;23195;47.744;7.358;2023-02-20T17:00:40;12.20;99.90
37310;DHT22;23195;47.744;7.358;2023-02-20T17:03:10;12.00;99.90
37310;DHT22;23195;47.744;7.358;2023-02-20T17:05:37;11.90;99.90
37310;DHT22;23195;47.744;7.358;2023-02-20T17:08:04;11.70;99.90
37310;DHT22;23195;47.744;7.358;2023-02-20T17:10:36;11.50;99.90
37310;DHT22;23195;47.744;7.358;2023-02-20T17:13:02;11.40;99.90
37310;DHT22;23195;47.744;7.358;2023-02-20T17:15:28;11.30;99.90
37310;DHT22;23195;47.744;7.358;2023-02-20T17:17:57;11.20;99.90
37310;DHT22;23195;47.744;7.358;2023-02-20T17:20:24;11.00;99.90
37310;DHT22;23195;47.744;7.358;2023-02-20T17:22:56;10.90;99.90
37310;DHT22;23195;47.744;7.358;2023-02-20T17:25:32;10.70;99.90
37310;DHT22;23195;47.744;7.358;2023-02-20T17:27:59;10.60;99.90
37310;DHT22;23195;47.744;7.358;2023-02-20T17:30:25;10.60;99.90
37310;DHT22;23195;47.744;7.358;2023-02-20T17:32:53;10.40;99.90
37310;DHT22;23195;47.744;7.358;2023-02-20T17:35:24;10.30;99.90
37310;DHT22;23195;47.744;7.358;2023-02-20T17:37:53;9.40;99.90
37310;DHT22;23195;47.744;7.358;2023-02-20T17:40:22;10.00;99.90
37310;DHT22;23195;47.744;7.358;2023-02-20T17:42:48;10.00;99.90
37310;DHT22;23195;47.744;7.358;2023-02-20T17:45:14;9.90;99.90
37310;DHT22;23195;47.744;7.358;2023-02-20T17:47:42;10.40;99.90
37310;DHT22;23195;47.744;7.358;2023-02-20T17:50:15;9.80;99.90
37310;DHT22;23195;47.744;7.358;2023-02-20T17:52:41;9.70;99.90
37310;DHT22;23195;47.744;7.358;2023-02-20T17:55:33;9.60;99.90
37310;DHT22;23195;47.744;7.358;2023-02-20T17:57:59;9.50;99.90
37310;DHT22;23195;47.744;7.358;2023-02-20T18:00:28;9.50;99.90
37310;DHT22;23195;47.744;7.358;2023-02-20T18:09:24;9.40;99.90
37310;DHT22;23195;47.744;7.358;2023-02-20T18:11:50;9.30;99.90
37310;DHT22;23195;47.744;7.358;2023-02-20T18:14:16;9.20;99.90
37310;DHT22;23195;47.744;7.358;2023-02-20T18:16:42;9.10;99.90
37310;DHT22;23195;47.744;7.358;2023-02-20T18:19:09;9.00;99.90
37310;DHT22;23195;47.744;7.358;2023-02-20T18:21:41;9.00;99.90
37310;DHT22;23195;47.744;7.358;2023-02-20T18:24:10;8.90;99.90
37310;DHT22;23195;47.744;7.358;2023-02-20T18:26:37;8.80;99.90
37310;DHT22;23195;47.744;7.358;2023-02-20T18:29:03;8.70;99.90
37310;DHT22;23195;47.744;7.358;2023-02-20T18:31:29;8.70;99.90
37310;DHT22;23195;47.744;7.358;2023-02-20T18:34:00;8.70;99.90
37310;DHT22;23195;47.744;7.358;2023-02-20T18:36:28;8.80;99.90
37310;DHT22;23195;47.744;7.358;2023-02-20T18:38:58;8.70;99.90
37310;DHT22;23195;47.744;7.358;2023-02-20T18:41:27;8.70;99.90
37310;DHT22;23195;47.744;7.358;2023-02-20T18:43:53;9.10;99.90
37310;DHT22;23195;47.744;7.358;2023-02-20T18:46:25;8.50;99.90
37310;DHT22;23195;47.744;7.358;2023-02-20T18:48:53;8.50;99.90
37310;DHT22;23195;47.744;7.358;2023-02-20T18:51:28;7.00;99.90